Strona główna
METAR-TAF:

METAR-TAF

Lotnisko :

Chester, Connecticut, Stany Zjednoczone

Szerokość geograficzna: 41-23-02N, Długość geograficzna: 072-30-21W, wysokość: 127 m

Aktualna obserwacja pogody

Raport powstał 17 minut temu, godzina 11:35 UTC
Cisza
Temperatura 4°C
Wilgotność 93%
Ciśnienie 1007 hPa
Widzialność: 6.4 km
Zachmurzenie całkowite na wysokości 300 ft
zamglenie

METAR: KSNC 191135Z AUTO 00000KT 4SM BR OVC003 04/03 A2973 RMK AO2

czas: 06:52 (11:52 UTC)


TAF: brakujący

Obserwacja i prognoza pogody dla ponad 4000 lotnisk (raport METAR i TAF).

Dostępne stacje oznaczono żółtymi i czerwonymi punktami na mapie.

Najedź kursorem aby zobaczyć nazwę stacji.

Kliknij aby zobaczyć obserwacje i prognozy pogody.

Aby zmienić mapę: kliknij na zielony przycisk z czarnym krzyżykiem, aby powiększyć; na zielony przycisk z myślnikiem, aby pomniejszyć; na zielone strzałki, aby przejść do map sąsiednich.


METAR-TAF: